createdAt,value
2019-01-31T00:01:47.814Z,5.37
2019-01-31T00:04:49.904Z,61.57
2019-01-31T00:08:18.492Z,55.63
2019-01-31T00:11:12.585Z,14.07
2019-01-31T00:13:57.641Z,6.40
2019-01-31T00:16:47.933Z,3.87
2019-01-31T00:19:48.157Z,25.07
2019-01-31T00:23:01.269Z,6.87
2019-01-31T00:25:50.761Z,4.00
2019-01-31T00:28:55.157Z,4.00
2019-01-31T00:32:00.423Z,3.60
2019-01-31T00:34:47.839Z,4.50
2019-01-31T00:37:52.474Z,3.73
2019-01-31T00:40:42.068Z,4.93
2019-01-31T00:43:24.522Z,3.97
2019-01-31T00:46:35.336Z,4.73
2019-01-31T00:49:44.156Z,3.83
2019-01-31T00:53:06.482Z,3.90
2019-01-31T00:56:16.725Z,3.40
2019-01-31T00:59:27.060Z,3.43
2019-01-31T01:02:39.680Z,2.93
2019-01-31T01:05:41.807Z,3.13
2019-01-31T01:08:28.780Z,2.97
2019-01-31T01:11:34.725Z,2.87
2019-01-31T01:14:39.816Z,3.53
2019-01-31T01:17:17.192Z,3.43
2019-01-31T01:20:24.761Z,3.27
2019-01-31T01:23:41.483Z,3.27
2019-01-31T01:26:48.496Z,2.90
2019-01-31T01:29:32.745Z,3.63
2019-01-31T01:32:45.719Z,3.50
2019-01-31T01:35:36.520Z,2.93
2019-01-31T01:38:46.272Z,3.67
2019-01-31T01:42:01.571Z,3.70
2019-01-31T01:45:15.047Z,3.00
2019-01-31T01:47:49.672Z,3.90
2019-01-31T01:50:43.832Z,3.87
2019-01-31T01:53:43.823Z,3.17
2019-01-31T01:56:32.101Z,3.10
2019-01-31T01:59:22.735Z,3.13
2019-01-31T02:02:22.208Z,3.40
2019-01-31T02:05:44.789Z,3.07
2019-01-31T02:08:55.814Z,3.90
2019-01-31T02:12:16.175Z,3.63
2019-01-31T02:15:23.888Z,4.03
2019-01-31T02:18:09.216Z,3.53
2019-01-31T02:21:18.530Z,4.20
2019-01-31T02:24:18.877Z,4.03
2019-01-31T02:27:35.971Z,3.90
2019-01-31T02:30:27.167Z,4.20
2019-01-31T02:33:30.713Z,4.63
2019-01-31T02:36:46.780Z,4.80
2019-01-31T02:39:45.448Z,4.33
2019-01-31T02:42:25.622Z,4.73
2019-01-31T02:45:19.348Z,5.30
2019-01-31T02:48:05.133Z,6.43
2019-01-31T02:50:58.709Z,5.47
2019-01-31T02:53:51.945Z,5.87
2019-01-31T02:56:48.405Z,5.40
2019-01-31T03:00:09.951Z,5.63
2019-01-31T03:03:17.384Z,5.53
2019-01-31T03:05:58.015Z,5.93
2019-01-31T03:08:42.693Z,5.87
2019-01-31T03:11:41.770Z,5.73
2019-01-31T03:14:22.582Z,6.20
2019-01-31T03:17:36.225Z,7.33
2019-01-31T03:20:39.802Z,6.50
2019-01-31T03:24:05.361Z,6.90
2019-01-31T03:27:10.955Z,7.83
2019-01-31T03:30:24.834Z,7.50
2019-01-31T03:33:03.806Z,6.80
2019-01-31T03:36:26.922Z,7.17
2019-01-31T03:39:19.049Z,6.77
2019-01-31T03:42:41.315Z,9.07
2019-01-31T03:45:23.774Z,8.57
2019-01-31T03:48:30.155Z,9.00
2019-01-31T03:51:17.691Z,9.27
2019-01-31T03:54:37.720Z,9.33
2019-01-31T03:57:29.567Z,8.23
2019-01-31T04:00:05.977Z,8.43
2019-01-31T04:03:04.848Z,8.07
2019-01-31T04:05:47.479Z,8.87
2019-01-31T04:08:16.757Z,8.77
2019-01-31T04:10:46.106Z,9.77
2019-01-31T04:13:15.428Z,9.70
2019-01-31T04:15:44.728Z,9.77
2019-01-31T04:18:14.150Z,8.80
2019-01-31T04:20:43.605Z,8.37
2019-01-31T04:23:12.920Z,7.10
2019-01-31T04:25:42.871Z,7.97
2019-01-31T04:28:12.119Z,7.70
2019-01-31T04:30:41.317Z,6.33
2019-01-31T04:33:10.632Z,7.87
2019-01-31T04:35:39.907Z,7.27
2019-01-31T04:38:09.246Z,7.93
2019-01-31T04:40:38.621Z,7.23
2019-01-31T04:43:07.841Z,6.33
2019-01-31T04:45:37.119Z,5.80
2019-01-31T04:48:06.370Z,6.43
2019-01-31T04:50:35.657Z,6.47
2019-01-31T04:53:04.954Z,5.93
2019-01-31T04:55:34.185Z,6.27
2019-01-31T04:58:03.532Z,5.80
2019-01-31T05:00:32.840Z,5.53
2019-01-31T05:03:02.100Z,6.30
2019-01-31T05:05:31.373Z,6.33
2019-01-31T05:08:00.689Z,6.63
2019-01-31T05:10:29.960Z,6.37
2019-01-31T05:12:59.128Z,6.67
2019-01-31T05:15:28.301Z,6.87
2019-01-31T05:17:57.529Z,6.63
2019-01-31T05:20:26.952Z,7.20
2019-01-31T05:22:56.255Z,6.83
2019-01-31T05:25:25.598Z,6.80
2019-01-31T05:27:55.056Z,7.20
2019-01-31T05:30:24.324Z,6.93
2019-01-31T05:32:53.664Z,6.90
2019-01-31T05:35:22.996Z,7.63
2019-01-31T05:37:52.460Z,6.90
2019-01-31T05:40:21.732Z,7.73
2019-01-31T05:42:51.071Z,7.57
2019-01-31T05:45:20.307Z,7.33
2019-01-31T05:47:49.691Z,8.13
2019-01-31T05:50:20.624Z,7.47
2019-01-31T05:52:49.996Z,7.63
2019-01-31T05:55:19.325Z,7.00
2019-01-31T05:57:48.720Z,6.70
2019-01-31T06:00:23.085Z,6.23
2019-01-31T06:02:52.482Z,7.10
2019-01-31T06:05:21.866Z,6.73
2019-01-31T06:07:51.238Z,6.13
2019-01-31T06:10:20.601Z,6.10
2019-01-31T06:12:49.894Z,6.80
2019-01-31T06:15:19.371Z,5.80
2019-01-31T06:17:48.719Z,6.23
2019-01-31T06:20:21.550Z,6.90
2019-01-31T06:22:50.912Z,6.57
2019-01-31T06:25:20.391Z,6.57
2019-01-31T06:27:49.727Z,6.67
2019-01-31T06:30:19.077Z,6.53
2019-01-31T06:32:48.391Z,6.23
2019-01-31T06:35:17.707Z,6.70
2019-01-31T06:37:46.973Z,6.53
2019-01-31T06:40:18.221Z,6.70
2019-01-31T06:42:47.734Z,7.93
2019-01-31T06:45:19.002Z,7.20
2019-01-31T06:47:48.567Z,7.73
2019-01-31T06:50:17.985Z,8.33
2019-01-31T06:52:47.423Z,7.90
2019-01-31T06:55:17.193Z,8.20
2019-01-31T06:57:46.493Z,9.00
2019-01-31T07:00:18.665Z,9.53
2019-01-31T07:02:48.009Z,9.33
2019-01-31T07:05:17.368Z,12.30
2019-01-31T07:07:46.637Z,9.90
2019-01-31T07:10:19.132Z,9.03
2019-01-31T07:12:48.404Z,7.67
2019-01-31T07:15:17.807Z,7.40
2019-01-31T07:17:47.272Z,6.90
2019-01-31T07:20:17.020Z,7.40
2019-01-31T07:22:46.362Z,6.33
2019-01-31T07:25:18.527Z,7.33
2019-01-31T07:27:47.896Z,7.17
2019-01-31T07:30:17.472Z,7.43
2019-01-31T07:32:46.789Z,7.30
2019-01-31T07:35:16.865Z,7.17
2019-01-31T07:37:46.119Z,7.57
2019-01-31T07:40:17.410Z,7.07
2019-01-31T07:42:46.752Z,7.60
2019-01-31T07:45:22.115Z,7.40
2019-01-31T07:47:52.029Z,6.80
2019-01-31T07:50:21.651Z,7.73
2019-01-31T07:52:50.951Z,8.03
2019-01-31T07:55:20.508Z,8.27
2019-01-31T07:57:49.830Z,7.70
2019-01-31T08:00:19.542Z,8.23
2019-01-31T08:02:48.885Z,8.53
2019-01-31T08:05:19.895Z,9.17
2019-01-31T08:07:50.699Z,9.03
2019-01-31T08:10:22.593Z,9.17
2019-01-31T08:12:51.942Z,8.77
2019-01-31T08:15:21.249Z,8.93
2019-01-31T08:17:50.655Z,9.10
2019-01-31T08:20:20.112Z,8.73
2019-01-31T08:22:49.396Z,7.80
2019-01-31T08:25:19.941Z,8.80
2019-01-31T08:27:49.854Z,8.40
2019-01-31T08:30:24.663Z,8.30
2019-01-31T08:32:53.999Z,8.27
2019-01-31T08:35:23.287Z,7.37
2019-01-31T08:37:53.173Z,7.67
2019-01-31T08:40:22.460Z,7.23
2019-01-31T08:42:51.760Z,7.00
2019-01-31T08:45:21.093Z,7.33
2019-01-31T08:47:50.472Z,7.60
2019-01-31T08:50:21.808Z,9.80
2019-01-31T08:52:51.207Z,8.37
2019-01-31T08:55:20.536Z,9.37
2019-01-31T08:57:49.823Z,10.60
2019-01-31T09:00:25.082Z,13.50
2019-01-31T09:02:54.348Z,12.77
2019-01-31T09:05:23.632Z,11.30
2019-01-31T09:07:53.446Z,17.57
2019-01-31T09:10:27.996Z,18.07
2019-01-31T09:12:57.916Z,19.53
2019-01-31T09:15:27.364Z,14.60
2019-01-31T09:17:56.898Z,20.50
2019-01-31T09:20:32.982Z,22.70
2019-01-31T09:23:15.703Z,17.83
2019-01-31T09:26:15.433Z,32.30
2019-01-31T09:29:10.030Z,21.60
2019-01-31T09:32:01.446Z,35.80
2019-01-31T09:34:50.950Z,28.90
2019-01-31T09:38:01.413Z,31.57
2019-01-31T09:41:20.793Z,38.60
2019-01-31T09:44:24.200Z,50.53
2019-01-31T09:47:34.588Z,19.43
2019-01-31T09:50:53.831Z,32.73
2019-01-31T09:53:57.199Z,17.23
2019-01-31T09:56:52.469Z,36.93
2019-01-31T09:59:51.523Z,31.90
2019-01-31T10:03:10.903Z,17.20
2019-01-31T10:06:29.977Z,40.30
2019-01-31T10:09:55.347Z,13.33
2019-01-31T10:13:24.122Z,26.10
2019-01-31T10:16:14.321Z,13.10
2019-01-31T10:18:59.292Z,29.80
2019-01-31T10:22:08.215Z,18.13
2019-01-31T10:25:17.565Z,18.97
2019-01-31T10:28:10.811Z,26.83
2019-01-31T10:31:08.554Z,16.97
2019-01-31T10:34:03.438Z,20.80
2019-01-31T10:37:15.688Z,14.60
2019-01-31T10:40:15.489Z,21.33
2019-01-31T10:43:38.176Z,24.90
2019-01-31T10:46:41.493Z,15.27
2019-01-31T10:49:47.639Z,17.37
2019-01-31T10:52:56.013Z,19.17
2019-01-31T10:56:02.918Z,20.43
2019-01-31T10:59:07.594Z,26.87
2019-01-31T11:02:14.474Z,31.47
2019-01-31T11:05:30.058Z,18.00
2019-01-31T11:08:36.646Z,33.00
2019-01-31T11:11:37.449Z,19.43
2019-01-31T11:14:41.908Z,17.53
2019-01-31T11:17:28.899Z,16.87
2019-01-31T11:20:13.908Z,19.27
2019-01-31T11:23:23.487Z,18.87
2019-01-31T11:26:39.637Z,17.00
2019-01-31T11:29:58.872Z,16.07
2019-01-31T11:32:54.170Z,17.67
2019-01-31T11:36:01.785Z,16.60
2019-01-31T11:38:37.394Z,15.73
2019-01-31T11:41:32.833Z,16.73
2019-01-31T11:44:42.050Z,15.53
2019-01-31T11:47:36.188Z,15.10
2019-01-31T11:50:55.732Z,11.77
2019-01-31T11:53:42.094Z,14.57
2019-01-31T11:56:45.664Z,14.30
2019-01-31T11:59:15.747Z,14.83
2019-01-31T12:01:45.177Z,18.03
2019-01-31T12:04:16.535Z,17.07
2019-01-31T12:06:46.931Z,12.97
2019-01-31T12:09:18.325Z,16.97
2019-01-31T12:11:47.597Z,13.90
2019-01-31T12:14:16.925Z,13.33
2019-01-31T12:16:46.282Z,12.30
2019-01-31T12:19:15.783Z,10.30
2019-01-31T12:21:45.336Z,11.60
2019-01-31T12:24:16.516Z,11.77
2019-01-31T12:26:45.960Z,10.07
2019-01-31T12:29:15.294Z,10.47
2019-01-31T12:31:44.606Z,10.20
2019-01-31T12:34:13.890Z,10.10
2019-01-31T12:36:43.266Z,10.53
2019-01-31T12:39:12.690Z,9.90
2019-01-31T12:41:42.033Z,9.13
2019-01-31T12:44:11.476Z,8.50
2019-01-31T12:46:40.757Z,9.17
2019-01-31T12:49:10.090Z,9.57
2019-01-31T12:51:39.383Z,8.73
2019-01-31T12:54:08.793Z,9.73
2019-01-31T12:56:38.151Z,8.37
2019-01-31T12:59:09.119Z,8.70
2019-01-31T13:01:39.713Z,9.73
2019-01-31T13:04:09.123Z,8.60
2019-01-31T13:06:38.455Z,8.13
2019-01-31T13:09:10.700Z,8.20
2019-01-31T13:11:40.094Z,8.30
2019-01-31T13:14:09.555Z,9.53
2019-01-31T13:16:38.937Z,9.50
2019-01-31T13:19:08.436Z,9.93
2019-01-31T13:21:37.787Z,9.73
2019-01-31T13:24:07.111Z,10.37
2019-01-31T13:26:37.371Z,11.23
2019-01-31T13:29:06.705Z,11.00
2019-01-31T13:31:36.787Z,9.10
2019-01-31T13:34:06.058Z,9.10
2019-01-31T13:36:35.433Z,10.53
2019-01-31T13:39:10.902Z,12.87
2019-01-31T13:41:41.987Z,9.93
2019-01-31T13:44:11.412Z,9.70
2019-01-31T13:46:40.612Z,9.13
2019-01-31T13:49:09.870Z,9.70
2019-01-31T13:51:39.253Z,9.03
2019-01-31T13:54:08.812Z,9.30
2019-01-31T13:56:45.307Z,9.23
2019-01-31T13:59:09.161Z,8.43
2019-01-31T14:01:38.687Z,11.10
2019-01-31T14:04:08.051Z,9.27
2019-01-31T14:06:37.332Z,9.23
2019-01-31T14:09:08.762Z,11.93
2019-01-31T14:11:38.028Z,10.23
2019-01-31T14:14:09.070Z,9.10
2019-01-31T14:16:47.219Z,8.80
2019-01-31T14:19:09.337Z,9.60
2019-01-31T14:21:38.583Z,8.20
2019-01-31T14:24:07.896Z,8.30
2019-01-31T14:26:37.200Z,9.07
2019-01-31T14:29:06.764Z,8.10
2019-01-31T14:31:39.483Z,8.50
2019-01-31T14:34:09.269Z,8.80
2019-01-31T14:36:38.630Z,8.87
2019-01-31T14:39:09.963Z,8.63
2019-01-31T14:41:39.240Z,9.10
2019-01-31T14:44:19.863Z,7.90
2019-01-31T14:46:39.616Z,8.27
2019-01-31T14:49:08.968Z,9.00
2019-01-31T14:51:38.405Z,8.93
2019-01-31T14:54:07.717Z,8.63
2019-01-31T14:56:37.057Z,8.70
2019-01-31T14:59:06.349Z,8.53
2019-01-31T15:01:35.705Z,7.43
2019-01-31T15:04:05.100Z,7.03
2019-01-31T15:06:34.351Z,7.40
2019-01-31T15:09:05.105Z,7.17
2019-01-31T15:11:34.361Z,7.30
2019-01-31T15:14:03.706Z,7.10
2019-01-31T15:16:33.958Z,7.50
2019-01-31T15:19:03.397Z,7.60
2019-01-31T15:21:32.723Z,6.40
2019-01-31T15:24:02.007Z,6.67
2019-01-31T15:26:31.416Z,6.20
2019-01-31T15:29:07.565Z,6.50
2019-01-31T15:31:36.825Z,6.40
2019-01-31T15:34:06.299Z,6.10
2019-01-31T15:36:35.494Z,6.20
2019-01-31T15:39:07.724Z,6.00
2019-01-31T15:41:37.183Z,6.00
2019-01-31T15:44:06.440Z,5.13
2019-01-31T15:46:35.944Z,5.03
2019-01-31T15:49:05.274Z,6.47
2019-01-31T15:51:34.549Z,5.53
2019-01-31T15:54:04.070Z,5.10
2019-01-31T15:56:33.369Z,5.63
2019-01-31T15:59:02.741Z,5.30
2019-01-31T16:01:32.027Z,5.60
2019-01-31T16:04:01.224Z,5.47
2019-01-31T16:06:30.445Z,5.17
2019-01-31T16:08:59.771Z,5.37
2019-01-31T16:11:29.859Z,5.33
2019-01-31T16:14:03.537Z,5.67
2019-01-31T16:16:33.029Z,5.93
2019-01-31T16:19:02.372Z,6.10
2019-01-31T16:21:31.704Z,5.87
2019-01-31T16:24:00.990Z,5.63
2019-01-31T16:26:30.368Z,6.27
2019-01-31T16:28:59.744Z,6.47
2019-01-31T16:31:29.112Z,5.83
2019-01-31T16:33:58.451Z,6.57
2019-01-31T16:36:27.770Z,6.13
2019-01-31T16:38:57.096Z,5.80
2019-01-31T16:41:26.388Z,6.40
2019-01-31T16:43:55.720Z,5.80
2019-01-31T16:46:25.114Z,6.33
2019-01-31T16:48:54.453Z,7.10
2019-01-31T16:51:23.728Z,7.87
2019-01-31T16:53:53.271Z,7.30
2019-01-31T16:56:22.604Z,7.10
2019-01-31T16:58:53.120Z,7.73
2019-01-31T17:01:22.525Z,6.87
2019-01-31T17:03:51.899Z,7.20
2019-01-31T17:06:21.242Z,7.77
2019-01-31T17:08:50.716Z,8.27
2019-01-31T17:11:19.992Z,8.53
2019-01-31T17:13:49.293Z,8.63
2019-01-31T17:16:18.709Z,10.83
2019-01-31T17:18:48.117Z,9.30
2019-01-31T17:21:17.512Z,10.27
2019-01-31T17:23:46.856Z,10.77
2019-01-31T17:26:16.300Z,11.37
2019-01-31T17:28:45.643Z,10.77
2019-01-31T17:31:16.167Z,9.17
2019-01-31T17:33:45.736Z,8.97
2019-01-31T17:36:15.105Z,20.90
2019-01-31T17:38:44.526Z,19.13
2019-01-31T17:41:13.889Z,13.33
2019-01-31T17:43:43.347Z,10.17
2019-01-31T17:46:13.384Z,10.53
2019-01-31T17:48:43.162Z,11.20
2019-01-31T17:51:14.158Z,9.80
2019-01-31T17:53:43.557Z,9.60
2019-01-31T17:56:13.517Z,10.23
2019-01-31T17:58:42.886Z,11.63
2019-01-31T18:01:12.156Z,11.03
2019-01-31T18:03:41.489Z,11.37
2019-01-31T18:06:10.869Z,11.77
2019-01-31T18:08:40.233Z,10.40
2019-01-31T18:11:09.920Z,81.83
2019-01-31T18:13:39.316Z,25.57
2019-01-31T18:16:08.809Z,10.47
2019-01-31T18:18:38.226Z,9.07
2019-01-31T18:21:07.591Z,9.00
2019-01-31T18:23:36.951Z,8.43
2019-01-31T18:26:06.341Z,8.70
2019-01-31T18:28:35.843Z,8.30
2019-01-31T18:31:05.521Z,8.37
2019-01-31T18:33:34.803Z,8.87
2019-01-31T18:36:04.120Z,9.10
2019-01-31T18:38:33.562Z,10.97
2019-01-31T18:41:02.922Z,9.27
2019-01-31T18:43:32.326Z,9.30
2019-01-31T18:46:01.675Z,9.10
2019-01-31T18:48:30.963Z,9.13
2019-01-31T18:51:00.325Z,10.50
2019-01-31T18:53:29.733Z,9.90
2019-01-31T18:55:59.098Z,10.43
2019-01-31T18:58:28.461Z,10.50
2019-01-31T19:00:58.120Z,11.10
2019-01-31T19:03:27.687Z,10.97
2019-01-31T19:05:58.070Z,10.23
2019-01-31T19:08:27.414Z,10.77
2019-01-31T19:10:56.775Z,11.47
2019-01-31T19:13:26.156Z,10.60
2019-01-31T19:16:04.700Z,10.03
2019-01-31T19:18:26.598Z,10.00
2019-01-31T19:20:56.019Z,9.60
2019-01-31T19:23:25.301Z,11.07
2019-01-31T19:25:54.588Z,10.73
2019-01-31T19:28:23.952Z,11.80
2019-01-31T19:32:35.260Z,9.83
2019-01-31T19:35:06.087Z,9.57
2019-01-31T19:37:35.511Z,9.70
2019-01-31T19:40:06.013Z,9.30
2019-01-31T19:42:36.075Z,9.00
2019-01-31T19:45:07.536Z,9.47
2019-01-31T19:47:42.243Z,9.00
2019-01-31T19:50:11.997Z,9.10
2019-01-31T19:52:41.398Z,7.47
2019-01-31T19:55:10.968Z,7.30
2019-01-31T19:57:40.301Z,7.50
2019-01-31T20:00:11.524Z,6.87
2019-01-31T20:02:40.875Z,7.40
2019-01-31T20:05:10.234Z,7.07
2019-01-31T20:07:39.818Z,7.20
2019-01-31T20:10:11.618Z,7.93
2019-01-31T20:12:41.006Z,7.20
2019-01-31T20:15:11.016Z,7.77
2019-01-31T20:17:40.880Z,7.20
2019-01-31T20:20:13.353Z,7.20
2019-01-31T20:22:42.709Z,7.90
2019-01-31T20:25:12.316Z,7.87
2019-01-31T20:27:41.687Z,7.33
2019-01-31T20:30:12.021Z,8.53
2019-01-31T20:32:41.427Z,8.43
2019-01-31T20:35:11.613Z,8.23
2019-01-31T20:37:40.987Z,7.23
2019-01-31T20:40:12.604Z,8.00
2019-01-31T20:42:41.908Z,8.70
2019-01-31T20:45:12.826Z,8.07
2019-01-31T20:47:42.144Z,8.60
2019-01-31T20:50:20.621Z,8.03
2019-01-31T20:52:50.415Z,7.83
2019-01-31T20:55:19.901Z,7.93
2019-01-31T20:57:49.267Z,7.37
2019-01-31T21:00:22.850Z,8.67
2019-01-31T21:02:52.257Z,9.30
2019-01-31T21:05:21.665Z,7.83
2019-01-31T21:07:50.964Z,8.30
2019-01-31T21:10:20.259Z,9.00
2019-01-31T21:12:49.494Z,8.30
2019-01-31T21:15:20.376Z,8.40
2019-01-31T21:17:49.777Z,7.93
2019-01-31T21:20:20.376Z,8.90
2019-01-31T21:22:49.975Z,8.57
2019-01-31T21:25:19.728Z,8.00
2019-01-31T21:27:49.809Z,8.23
2019-01-31T21:30:27.931Z,7.60
2019-01-31T21:32:57.300Z,8.13
2019-01-31T21:35:27.467Z,7.33
2019-01-31T21:37:56.945Z,8.00
2019-01-31T21:40:27.147Z,8.40
2019-01-31T21:42:56.578Z,7.20
2019-01-31T21:45:26.054Z,8.30
2019-01-31T21:47:55.458Z,7.63
2019-01-31T21:50:25.019Z,7.23
2019-01-31T21:52:54.437Z,8.23
2019-01-31T21:55:23.696Z,7.90
2019-01-31T21:57:53.006Z,7.70
2019-01-31T22:00:25.100Z,8.10
2019-01-31T22:02:54.586Z,7.67
2019-01-31T22:05:23.939Z,7.57
2019-01-31T22:07:53.318Z,8.00
2019-01-31T22:10:22.675Z,6.97
2019-01-31T22:12:52.048Z,8.10
2019-01-31T22:15:23.715Z,7.30
2019-01-31T22:17:53.001Z,6.90
2019-01-31T22:20:22.356Z,7.53
2019-01-31T22:22:51.729Z,7.00
2019-01-31T22:25:21.635Z,7.87
2019-01-31T22:27:50.974Z,7.70
2019-01-31T22:30:22.676Z,7.50
2019-01-31T22:32:53.978Z,7.57
2019-01-31T22:35:23.352Z,7.47
2019-01-31T22:37:53.024Z,7.90
2019-01-31T22:40:22.605Z,7.07
2019-01-31T22:42:51.963Z,8.07
2019-01-31T22:45:22.405Z,8.37
2019-01-31T22:47:51.873Z,7.37
2019-01-31T22:50:22.036Z,8.47
2019-01-31T22:52:51.349Z,7.20
2019-01-31T22:55:22.175Z,8.67
2019-01-31T22:57:51.449Z,8.10
2019-01-31T23:01:24.311Z,8.67
2019-01-31T23:03:53.970Z,8.30
2019-01-31T23:06:23.786Z,7.67
2019-01-31T23:08:53.160Z,8.50
2019-01-31T23:11:22.996Z,8.13
2019-01-31T23:13:52.335Z,9.07
2019-01-31T23:16:21.787Z,8.17
2019-01-31T23:18:51.230Z,8.17
2019-01-31T23:21:20.523Z,7.47
2019-01-31T23:23:49.804Z,8.27
2019-01-31T23:26:19.168Z,8.33
2019-01-31T23:28:48.496Z,8.43
2019-01-31T23:31:17.758Z,7.90
2019-01-31T23:33:47.108Z,8.83
2019-01-31T23:36:16.304Z,8.00
2019-01-31T23:38:45.660Z,7.67
2019-01-31T23:41:14.961Z,8.20
2019-01-31T23:43:44.320Z,6.90
2019-01-31T23:46:13.719Z,7.97
2019-01-31T23:48:43.076Z,8.57
2019-01-31T23:51:12.359Z,8.10
2019-01-31T23:53:41.623Z,8.70
2019-01-31T23:56:10.854Z,8.47
2019-01-31T23:58:40.207Z,8.47
